sensor_id;sensor_type;location;lat;lon;timestamp;temperature;humidity
24678;DHT22;12800;53.094;8.778;2023-07-31T00:00:08;17.80;82.60
24678;DHT22;12800;53.094;8.778;2023-07-31T00:02:34;17.80;82.70
24678;DHT22;12800;53.094;8.778;2023-07-31T00:05:01;17.80;82.90
24678;DHT22;12800;53.094;8.778;2023-07-31T00:07:26;17.80;83.00
24678;DHT22;12800;53.094;8.778;2023-07-31T00:09:52;17.80;83.20
24678;DHT22;12800;53.094;8.778;2023-07-31T00:12:19;17.90;83.40
24678;DHT22;12800;53.094;8.778;2023-07-31T00:14:45;17.90;83.50
24678;DHT22;12800;53.094;8.778;2023-07-31T00:17:11;17.90;83.50
24678;DHT22;12800;53.094;8.778;2023-07-31T00:19:37;17.90;83.50
24678;DHT22;12800;53.094;8.778;2023-07-31T00:22:02;17.90;83.60
24678;DHT22;12800;53.094;8.778;2023-07-31T00:24:28;17.90;83.70
24678;DHT22;12800;53.094;8.778;2023-07-31T00:26:53;17.90;83.70
24678;DHT22;12800;53.094;8.778;2023-07-31T00:29:19;17.90;83.70
24678;DHT22;12800;53.094;8.778;2023-07-31T00:31:45;17.90;83.70
24678;DHT22;12800;53.094;8.778;2023-07-31T00:34:10;17.90;83.90
24678;DHT22;12800;53.094;8.778;2023-07-31T00:36:36;17.90;83.80
24678;DHT22;12800;53.094;8.778;2023-07-31T00:39:01;17.90;83.90
24678;DHT22;12800;53.094;8.778;2023-07-31T00:41:27;17.90;84.10
24678;DHT22;12800;53.094;8.778;2023-07-31T00:43:52;17.90;84.20
24678;DHT22;12800;53.094;8.778;2023-07-31T00:46:18;18.00;84.30
24678;DHT22;12800;53.094;8.778;2023-07-31T00:48:44;18.00;85.00
24678;DHT22;12800;53.094;8.778;2023-07-31T00:51:10;18.00;84.20
24678;DHT22;12800;53.094;8.778;2023-07-31T00:53:36;18.00;84.20
24678;DHT22;12800;53.094;8.778;2023-07-31T00:56:03;18.00;84.30
24678;DHT22;12800;53.094;8.778;2023-07-31T00:58:29;18.00;84.50
24678;DHT22;12800;53.094;8.778;2023-07-31T01:00:55;18.00;84.50
24678;DHT22;12800;53.094;8.778;2023-07-31T01:03:20;18.00;84.60
24678;DHT22;12800;53.094;8.778;2023-07-31T01:08:40;18.00;84.50
24678;DHT22;12800;53.094;8.778;2023-07-31T01:11:18;18.00;84.50
24678;DHT22;12800;53.094;8.778;2023-07-31T01:13:45;18.00;84.60
24678;DHT22;12800;53.094;8.778;2023-07-31T01:16:11;18.00;84.70
24678;DHT22;12800;53.094;8.778;2023-07-31T01:18:37;18.00;84.80
24678;DHT22;12800;53.094;8.778;2023-07-31T01:26:38;18.00;85.00
24678;DHT22;12800;53.094;8.778;2023-07-31T01:29:27;18.00;84.90
24678;DHT22;12800;53.094;8.778;2023-07-31T01:31:56;18.00;85.00
24678;DHT22;12800;53.094;8.778;2023-07-31T01:34:26;18.00;85.00
24678;DHT22;12800;53.094;8.778;2023-07-31T01:36:51;18.00;85.00
24678;DHT22;12800;53.094;8.778;2023-07-31T01:39:20;18.00;85.00
24678;DHT22;12800;53.094;8.778;2023-07-31T01:41:46;18.10;85.10
24678;DHT22;12800;53.094;8.778;2023-07-31T01:44:11;18.10;85.10
24678;DHT22;12800;53.094;8.778;2023-07-31T01:46:37;18.10;85.20
24678;DHT22;12800;53.094;8.778;2023-07-31T01:49:02;18.10;85.30
24678;DHT22;12800;53.094;8.778;2023-07-31T01:51:31;18.00;85.30
24678;DHT22;12800;53.094;8.778;2023-07-31T01:54:02;18.00;85.60
24678;DHT22;12800;53.094;8.778;2023-07-31T01:56:28;18.00;85.70
24678;DHT22;12800;53.094;8.778;2023-07-31T01:58:53;18.00;86.00
24678;DHT22;12800;53.094;8.778;2023-07-31T02:01:19;18.00;86.10
24678;DHT22;12800;53.094;8.778;2023-07-31T02:03:45;18.00;86.30
24678;DHT22;12800;53.094;8.778;2023-07-31T02:06:11;18.00;86.40
24678;DHT22;12800;53.094;8.778;2023-07-31T02:08:36;17.90;86.50
24678;DHT22;12800;53.094;8.778;2023-07-31T02:11:02;17.90;86.80
24678;DHT22;12800;53.094;8.778;2023-07-31T02:13:28;17.90;86.90
24678;DHT22;12800;53.094;8.778;2023-07-31T02:15:54;17.90;87.20
24678;DHT22;12800;53.094;8.778;2023-07-31T02:18:19;17.80;87.30
24678;DHT22;12800;53.094;8.778;2023-07-31T02:20:54;17.80;87.50
24678;DHT22;12800;53.094;8.778;2023-07-31T02:23:20;17.70;87.50
24678;DHT22;12800;53.094;8.778;2023-07-31T02:25:46;17.70;87.50
24678;DHT22;12800;53.094;8.778;2023-07-31T02:28:11;17.70;87.90
24678;DHT22;12800;53.094;8.778;2023-07-31T02:30:37;17.60;88.00
24678;DHT22;12800;53.094;8.778;2023-07-31T02:33:04;17.60;88.20
24678;DHT22;12800;53.094;8.778;2023-07-31T02:35:29;17.60;88.40
24678;DHT22;12800;53.094;8.778;2023-07-31T02:37:55;17.60;88.60
24678;DHT22;12800;53.094;8.778;2023-07-31T02:40:20;17.50;88.60
24678;DHT22;12800;53.094;8.778;2023-07-31T02:42:46;17.60;88.80
24678;DHT22;12800;53.094;8.778;2023-07-31T02:45:12;17.50;89.00
24678;DHT22;12800;53.094;8.778;2023-07-31T02:47:37;17.50;89.20
24678;DHT22;12800;53.094;8.778;2023-07-31T02:50:04;17.50;89.40
24678;DHT22;12800;53.094;8.778;2023-07-31T02:52:30;17.50;89.50
24678;DHT22;12800;53.094;8.778;2023-07-31T02:54:56;17.50;89.60
24678;DHT22;12800;53.094;8.778;2023-07-31T02:57:21;17.40;89.60
24678;DHT22;12800;53.094;8.778;2023-07-31T02:59:47;17.40;89.80
24678;DHT22;12800;53.094;8.778;2023-07-31T03:02:12;17.40;89.90
24678;DHT22;12800;53.094;8.778;2023-07-31T03:04:38;17.40;90.00
24678;DHT22;12800;53.094;8.778;2023-07-31T03:07:04;17.40;90.00
24678;DHT22;12800;53.094;8.778;2023-07-31T03:09:30;17.40;90.20
24678;DHT22;12800;53.094;8.778;2023-07-31T03:11:55;17.40;90.20
24678;DHT22;12800;53.094;8.778;2023-07-31T03:14:21;17.40;90.30
24678;DHT22;12800;53.094;8.778;2023-07-31T03:16:48;17.40;90.60
24678;DHT22;12800;53.094;8.778;2023-07-31T03:19:13;17.40;90.30
24678;DHT22;12800;53.094;8.778;2023-07-31T03:21:39;17.40;90.40
24678;DHT22;12800;53.094;8.778;2023-07-31T03:24:05;17.40;90.40
24678;DHT22;12800;53.094;8.778;2023-07-31T03:26:31;17.40;90.40
24678;DHT22;12800;53.094;8.778;2023-07-31T03:28:57;17.40;90.40
24678;DHT22;12800;53.094;8.778;2023-07-31T03:31:23;17.40;90.40
24678;DHT22;12800;53.094;8.778;2023-07-31T03:33:49;17.40;90.50
24678;DHT22;12800;53.094;8.778;2023-07-31T03:36:15;17.40;90.40
24678;DHT22;12800;53.094;8.778;2023-07-31T03:38:40;17.40;90.50
24678;DHT22;12800;53.094;8.778;2023-07-31T03:41:06;17.40;90.50
24678;DHT22;12800;53.094;8.778;2023-07-31T03:43:32;17.40;90.60
24678;DHT22;12800;53.094;8.778;2023-07-31T03:45:59;17.40;90.60
24678;DHT22;12800;53.094;8.778;2023-07-31T03:48:25;17.40;90.90
24678;DHT22;12800;53.094;8.778;2023-07-31T03:50:51;17.40;90.60
24678;DHT22;12800;53.094;8.778;2023-07-31T03:53:17;17.40;90.60
24678;DHT22;12800;53.094;8.778;2023-07-31T03:55:42;17.40;90.70
24678;DHT22;12800;53.094;8.778;2023-07-31T03:58:08;17.40;90.70
24678;DHT22;12800;53.094;8.778;2023-07-31T04:00:34;17.40;90.70
24678;DHT22;12800;53.094;8.778;2023-07-31T04:02:59;17.30;90.70
24678;DHT22;12800;53.094;8.778;2023-07-31T04:05:25;17.40;90.70
24678;DHT22;12800;53.094;8.778;2023-07-31T04:07:51;17.40;90.70
24678;DHT22;12800;53.094;8.778;2023-07-31T04:10:16;17.40;90.80
24678;DHT22;12800;53.094;8.778;2023-07-31T04:12:42;17.40;90.80
24678;DHT22;12800;53.094;8.778;2023-07-31T04:15:08;17.40;90.80
24678;DHT22;12800;53.094;8.778;2023-07-31T04:17:34;17.40;90.90
24678;DHT22;12800;53.094;8.778;2023-07-31T04:19:59;17.40;90.90
24678;DHT22;12800;53.094;8.778;2023-07-31T04:22:25;17.30;90.90
24678;DHT22;12800;53.094;8.778;2023-07-31T04:24:50;17.40;91.00
24678;DHT22;12800;53.094;8.778;2023-07-31T04:27:16;17.40;90.90
24678;DHT22;12800;53.094;8.778;2023-07-31T04:29:42;17.40;91.00
24678;DHT22;12800;53.094;8.778;2023-07-31T04:32:09;17.40;90.90
24678;DHT22;12800;53.094;8.778;2023-07-31T04:34:35;17.40;91.10
24678;DHT22;12800;53.094;8.778;2023-07-31T04:37:00;17.40;91.00
24678;DHT22;12800;53.094;8.778;2023-07-31T04:39:26;17.40;91.00
24678;DHT22;12800;53.094;8.778;2023-07-31T04:41:52;17.40;91.10
24678;DHT22;12800;53.094;8.778;2023-07-31T04:44:17;17.50;91.00
24678;DHT22;12800;53.094;8.778;2023-07-31T04:46:43;17.40;91.50
24678;DHT22;12800;53.094;8.778;2023-07-31T04:49:08;17.40;91.10
24678;DHT22;12800;53.094;8.778;2023-07-31T04:51:34;17.40;91.00
24678;DHT22;12800;53.094;8.778;2023-07-31T04:53:59;17.50;91.00
24678;DHT22;12800;53.094;8.778;2023-07-31T04:56:25;17.40;91.10
24678;DHT22;12800;53.094;8.778;2023-07-31T04:58:51;17.50;91.10
24678;DHT22;12800;53.094;8.778;2023-07-31T05:01:16;17.50;91.10
24678;DHT22;12800;53.094;8.778;2023-07-31T05:03:42;17.50;91.20
24678;DHT22;12800;53.094;8.778;2023-07-31T05:06:07;17.40;91.10
24678;DHT22;12800;53.094;8.778;2023-07-31T05:08:33;17.50;91.20
24678;DHT22;12800;53.094;8.778;2023-07-31T05:10:59;17.50;91.20
24678;DHT22;12800;53.094;8.778;2023-07-31T05:13:24;17.50;91.30
24678;DHT22;12800;53.094;8.778;2023-07-31T05:15:50;17.60;91.20
24678;DHT22;12800;53.094;8.778;2023-07-31T05:18:15;17.60;91.20
24678;DHT22;12800;53.094;8.778;2023-07-31T05:20:41;17.60;91.20
24678;DHT22;12800;53.094;8.778;2023-07-31T05:23:07;17.60;91.20
24678;DHT22;12800;53.094;8.778;2023-07-31T05:25:32;17.60;91.20
24678;DHT22;12800;53.094;8.778;2023-07-31T05:27:58;17.60;91.20
24678;DHT22;12800;53.094;8.778;2023-07-31T05:30:24;17.60;91.20
24678;DHT22;12800;53.094;8.778;2023-07-31T05:32:49;17.60;91.10
24678;DHT22;12800;53.094;8.778;2023-07-31T05:35:15;17.60;91.20
24678;DHT22;12800;53.094;8.778;2023-07-31T05:37:40;17.60;91.20
24678;DHT22;12800;53.094;8.778;2023-07-31T05:40:06;17.60;91.30
24678;DHT22;12800;53.094;8.778;2023-07-31T05:42:32;17.60;91.30
24678;DHT22;12800;53.094;8.778;2023-07-31T05:44:58;17.70;91.30
24678;DHT22;12800;53.094;8.778;2023-07-31T05:47:23;17.60;91.20
24678;DHT22;12800;53.094;8.778;2023-07-31T05:49:49;17.70;91.30
24678;DHT22;12800;53.094;8.778;2023-07-31T05:52:18;17.70;91.30
24678;DHT22;12800;53.094;8.778;2023-07-31T05:54:44;17.70;91.30
24678;DHT22;12800;53.094;8.778;2023-07-31T05:57:11;17.80;91.60
24678;DHT22;12800;53.094;8.778;2023-07-31T05:59:37;17.80;91.60
24678;DHT22;12800;53.094;8.778;2023-07-31T06:02:02;17.80;91.30
24678;DHT22;12800;53.094;8.778;2023-07-31T06:04:28;17.80;91.30
24678;DHT22;12800;53.094;8.778;2023-07-31T06:06:54;17.90;91.30
24678;DHT22;12800;53.094;8.778;2023-07-31T06:09:19;17.90;91.30
24678;DHT22;12800;53.094;8.778;2023-07-31T06:11:45;17.90;91.30
24678;DHT22;12800;53.094;8.778;2023-07-31T06:14:11;17.90;91.30
24678;DHT22;12800;53.094;8.778;2023-07-31T06:16:37;17.80;91.30
24678;DHT22;12800;53.094;8.778;2023-07-31T06:19:03;17.90;91.40
24678;DHT22;12800;53.094;8.778;2023-07-31T06:21:28;17.90;91.40
24678;DHT22;12800;53.094;8.778;2023-07-31T06:23:55;17.90;91.50
24678;DHT22;12800;53.094;8.778;2023-07-31T06:26:20;17.90;91.50
24678;DHT22;12800;53.094;8.778;2023-07-31T06:28:46;17.90;91.50
24678;DHT22;12800;53.094;8.778;2023-07-31T06:31:12;17.90;91.50
24678;DHT22;12800;53.094;8.778;2023-07-31T06:33:37;17.90;91.50
24678;DHT22;12800;53.094;8.778;2023-07-31T06:36:03;17.90;91.50
24678;DHT22;12800;53.094;8.778;2023-07-31T06:38:29;17.90;91.50
24678;DHT22;12800;53.094;8.778;2023-07-31T06:40:54;17.90;91.50
24678;DHT22;12800;53.094;8.778;2023-07-31T06:43:20;17.90;91.50
24678;DHT22;12800;53.094;8.778;2023-07-31T06:45:46;17.90;91.50
24678;DHT22;12800;53.094;8.778;2023-07-31T06:48:13;17.90;91.60
24678;DHT22;12800;53.094;8.778;2023-07-31T06:50:39;18.00;91.60
24678;DHT22;12800;53.094;8.778;2023-07-31T06:53:05;18.00;91.60
24678;DHT22;12800;53.094;8.778;2023-07-31T06:55:31;18.00;91.60
24678;DHT22;12800;53.094;8.778;2023-07-31T06:57:56;18.00;91.60
24678;DHT22;12800;53.094;8.778;2023-07-31T07:00:23;18.00;91.70
24678;DHT22;12800;53.094;8.778;2023-07-31T07:02:49;18.00;91.70
24678;DHT22;12800;53.094;8.778;2023-07-31T07:05:16;18.00;91.70
24678;DHT22;12800;53.094;8.778;2023-07-31T07:07:42;18.00;91.80
24678;DHT22;12800;53.094;8.778;2023-07-31T07:10:08;18.00;91.90
24678;DHT22;12800;53.094;8.778;2023-07-31T07:12:34;18.10;92.30
24678;DHT22;12800;53.094;8.778;2023-07-31T07:15:00;18.10;91.90
24678;DHT22;12800;53.094;8.778;2023-07-31T07:17:29;18.10;91.90
24678;DHT22;12800;53.094;8.778;2023-07-31T07:19:57;18.10;92.30
24678;DHT22;12800;53.094;8.778;2023-07-31T07:22:23;18.20;92.10
24678;DHT22;12800;53.094;8.778;2023-07-31T07:24:49;18.20;92.10
24678;DHT22;12800;53.094;8.778;2023-07-31T07:27:15;18.20;92.10
24678;DHT22;12800;53.094;8.778;2023-07-31T07:29:40;18.30;92.10
24678;DHT22;12800;53.094;8.778;2023-07-31T07:32:06;18.30;92.10
24678;DHT22;12800;53.094;8.778;2023-07-31T07:34:32;18.30;92.00
24678;DHT22;12800;53.094;8.778;2023-07-31T07:36:57;18.30;92.40
24678;DHT22;12800;53.094;8.778;2023-07-31T07:39:23;18.30;92.00
24678;DHT22;12800;53.094;8.778;2023-07-31T07:41:48;18.30;92.00
24678;DHT22;12800;53.094;8.778;2023-07-31T07:44:14;18.30;92.00
24678;DHT22;12800;53.094;8.778;2023-07-31T07:46:40;18.20;92.10
24678;DHT22;12800;53.094;8.778;2023-07-31T07:49:06;18.30;92.20
24678;DHT22;12800;53.094;8.778;2023-07-31T07:51:32;18.30;92.20
24678;DHT22;12800;53.094;8.778;2023-07-31T07:53:58;18.30;92.20
24678;DHT22;12800;53.094;8.778;2023-07-31T07:56:25;18.30;92.20
24678;DHT22;12800;53.094;8.778;2023-07-31T07:58:51;18.30;92.20
24678;DHT22;12800;53.094;8.778;2023-07-31T08:01:16;18.30;92.20
24678;DHT22;12800;53.094;8.778;2023-07-31T08:03:42;18.30;92.20
24678;DHT22;12800;53.094;8.778;2023-07-31T08:06:09;18.40;92.20
24678;DHT22;12800;53.094;8.778;2023-07-31T08:08:36;18.40;92.30
24678;DHT22;12800;53.094;8.778;2023-07-31T08:11:01;18.40;92.20
24678;DHT22;12800;53.094;8.778;2023-07-31T08:13:27;18.50;92.30
24678;DHT22;12800;53.094;8.778;2023-07-31T08:15:53;18.50;92.20
24678;DHT22;12800;53.094;8.778;2023-07-31T08:18:19;18.60;92.10
24678;DHT22;12800;53.094;8.778;2023-07-31T08:20:44;18.60;92.10
24678;DHT22;12800;53.094;8.778;2023-07-31T08:23:10;18.60;92.00
24678;DHT22;12800;53.094;8.778;2023-07-31T08:25:36;18.70;92.00
24678;DHT22;12800;53.094;8.778;2023-07-31T08:28:06;18.70;91.90
24678;DHT22;12800;53.094;8.778;2023-07-31T08:30:32;18.70;91.80
24678;DHT22;12800;53.094;8.778;2023-07-31T08:32:58;18.70;91.80
24678;DHT22;12800;53.094;8.778;2023-07-31T08:35:25;18.80;91.70
24678;DHT22;12800;53.094;8.778;2023-07-31T08:37:51;18.80;91.70
24678;DHT22;12800;53.094;8.778;2023-07-31T08:40:16;18.80;91.60
24678;DHT22;12800;53.094;8.778;2023-07-31T08:42:44;18.80;91.50
24678;DHT22;12800;53.094;8.778;2023-07-31T08:45:16;18.80;91.50
24678;DHT22;12800;53.094;8.778;2023-07-31T08:47:45;18.90;91.40
24678;DHT22;12800;53.094;8.778;2023-07-31T08:50:12;18.90;91.40
24678;DHT22;12800;53.094;8.778;2023-07-31T08:52:39;19.00;91.50
24678;DHT22;12800;53.094;8.778;2023-07-31T08:55:05;19.00;91.30
24678;DHT22;12800;53.094;8.778;2023-07-31T08:57:32;19.10;91.20
24678;DHT22;12800;53.094;8.778;2023-07-31T08:59:59;19.10;91.20
24678;DHT22;12800;53.094;8.778;2023-07-31T09:02:36;19.10;91.20
24678;DHT22;12800;53.094;8.778;2023-07-31T09:05:04;19.20;91.20
24678;DHT22;12800;53.094;8.778;2023-07-31T09:07:31;19.20;91.00
24678;DHT22;12800;53.094;8.778;2023-07-31T09:09:58;19.20;90.90
24678;DHT22;12800;53.094;8.778;2023-07-31T09:12:25;19.30;90.90
24678;DHT22;12800;53.094;8.778;2023-07-31T09:14:51;19.30;90.70
24678;DHT22;12800;53.094;8.778;2023-07-31T09:17:28;19.30;90.70
24678;DHT22;12800;53.094;8.778;2023-07-31T09:19:55;19.30;90.50
24678;DHT22;12800;53.094;8.778;2023-07-31T09:22:34;19.30;90.50
24678;DHT22;12800;53.094;8.778;2023-07-31T09:25:19;19.40;90.50
24678;DHT22;12800;53.094;8.778;2023-07-31T09:27:52;19.30;90.20
24678;DHT22;12800;53.094;8.778;2023-07-31T09:30:18;19.30;90.20
24678;DHT22;12800;53.094;8.778;2023-07-31T09:32:45;19.30;90.10
24678;DHT22;12800;53.094;8.778;2023-07-31T09:35:22;19.20;90.10
24678;DHT22;12800;53.094;8.778;2023-07-31T09:37:50;19.20;90.10
24678;DHT22;12800;53.094;8.778;2023-07-31T09:40:26;19.20;90.60
24678;DHT22;12800;53.094;8.778;2023-07-31T09:43:00;19.20;90.40
24678;DHT22;12800;53.094;8.778;2023-07-31T09:45:26;19.20;90.40
24678;DHT22;12800;53.094;8.778;2023-07-31T09:47:53;19.20;90.50
24678;DHT22;12800;53.094;8.778;2023-07-31T09:50:24;19.30;90.70
24678;DHT22;12800;53.094;8.778;2023-07-31T09:52:51;19.30;90.80
24678;DHT22;12800;53.094;8.778;2023-07-31T09:55:18;19.40;90.80
24678;DHT22;12800;53.094;8.778;2023-07-31T09:57:48;19.40;90.70
24678;DHT22;12800;53.094;8.778;2023-07-31T10:00:16;19.50;90.80
24678;DHT22;12800;53.094;8.778;2023-07-31T10:02:46;19.60;90.80
24678;DHT22;12800;53.094;8.778;2023-07-31T10:05:14;19.70;90.70
24678;DHT22;12800;53.094;8.778;2023-07-31T10:07:54;19.70;90.50
24678;DHT22;12800;53.094;8.778;2023-07-31T10:10:21;19.80;90.50
24678;DHT22;12800;53.094;8.778;2023-07-31T10:12:48;19.80;90.40
24678;DHT22;12800;53.094;8.778;2023-07-31T10:15:16;19.80;90.40
24678;DHT22;12800;53.094;8.778;2023-07-31T10:17:41;19.80;90.40
24678;DHT22;12800;53.094;8.778;2023-07-31T10:20:08;19.80;90.30
24678;DHT22;12800;53.094;8.778;2023-07-31T10:22:34;19.80;90.30
24678;DHT22;12800;53.094;8.778;2023-07-31T10:25:00;19.70;90.20
24678;DHT22;12800;53.094;8.778;2023-07-31T10:27:26;19.70;90.30
24678;DHT22;12800;53.094;8.778;2023-07-31T10:29:54;19.70;90.40
24678;DHT22;12800;53.094;8.778;2023-07-31T10:32:21;19.80;90.50
24678;DHT22;12800;53.094;8.778;2023-07-31T10:34:47;19.80;90.50
24678;DHT22;12800;53.094;8.778;2023-07-31T10:40:03;19.90;90.40
24678;DHT22;12800;53.094;8.778;2023-07-31T10:42:34;19.90;90.50
24678;DHT22;12800;53.094;8.778;2023-07-31T10:45:09;20.00;90.50
24678;DHT22;12800;53.094;8.778;2023-07-31T10:47:38;20.00;90.40
24678;DHT22;12800;53.094;8.778;2023-07-31T10:50:20;20.10;90.30
24678;DHT22;12800;53.094;8.778;2023-07-31T10:52:56;20.00;90.30
24678;DHT22;12800;53.094;8.778;2023-07-31T10:57:56;20.00;90.40
24678;DHT22;12800;53.094;8.778;2023-07-31T11:00:27;20.00;90.50
24678;DHT22;12800;53.094;8.778;2023-07-31T11:03:03;20.00;90.50
24678;DHT22;12800;53.094;8.778;2023-07-31T11:06:20;19.90;90.50
24678;DHT22;12800;53.094;8.778;2023-07-31T11:08:44;20.00;90.60
24678;DHT22;12800;53.094;8.778;2023-07-31T11:11:12;20.00;90.60
24678;DHT22;12800;53.094;8.778;2023-07-31T11:13:51;20.00;90.50
24678;DHT22;12800;53.094;8.778;2023-07-31T11:16:21;20.10;90.60
24678;DHT22;12800;53.094;8.778;2023-07-31T11:18:48;20.10;90.50
24678;DHT22;12800;53.094;8.778;2023-07-31T11:21:22;20.10;90.40
24678;DHT22;12800;53.094;8.778;2023-07-31T11:23:50;20.10;90.50
24678;DHT22;12800;53.094;8.778;2023-07-31T11:26:17;20.10;90.40
24678;DHT22;12800;53.094;8.778;2023-07-31T11:28:45;20.10;90.40
24678;DHT22;12800;53.094;8.778;2023-07-31T11:31:11;20.20;90.40
24678;DHT22;12800;53.094;8.778;2023-07-31T11:33:37;20.20;90.50
24678;DHT22;12800;53.094;8.778;2023-07-31T11:36:03;20.20;90.40
24678;DHT22;12800;53.094;8.778;2023-07-31T11:38:31;20.20;90.30
24678;DHT22;12800;53.094;8.778;2023-07-31T11:41:02;20.20;90.20
24678;DHT22;12800;53.094;8.778;2023-07-31T11:43:28;20.20;90.20
24678;DHT22;12800;53.094;8.778;2023-07-31T11:45:58;20.20;90.30
24678;DHT22;12800;53.094;8.778;2023-07-31T11:48:32;20.20;90.40
24678;DHT22;12800;53.094;8.778;2023-07-31T11:51:06;20.30;90.50
24678;DHT22;12800;53.094;8.778;2023-07-31T11:53:41;20.30;90.50
24678;DHT22;12800;53.094;8.778;2023-07-31T11:56:10;20.40;90.70
24678;DHT22;12800;53.094;8.778;2023-07-31T11:58:37;20.40;90.80
24678;DHT22;12800;53.094;8.778;2023-07-31T12:01:04;20.50;90.80
24678;DHT22;12800;53.094;8.778;2023-07-31T12:03:31;20.60;90.70
24678;DHT22;12800;53.094;8.778;2023-07-31T12:05:58;20.60;90.70
24678;DHT22;12800;53.094;8.778;2023-07-31T12:08:25;20.70;90.70
24678;DHT22;12800;53.094;8.778;2023-07-31T12:10:51;20.70;90.70
24678;DHT22;12800;53.094;8.778;2023-07-31T12:13:22;20.80;90.60
24678;DHT22;12800;53.094;8.778;2023-07-31T12:15:48;20.80;90.50
24678;DHT22;12800;53.094;8.778;2023-07-31T12:18:16;20.90;90.50
24678;DHT22;12800;53.094;8.778;2023-07-31T12:23:15;21.00;90.70
24678;DHT22;12800;53.094;8.778;2023-07-31T12:25:42;21.00;90.50
24678;DHT22;12800;53.094;8.778;2023-07-31T12:28:08;21.00;90.30
24678;DHT22;12800;53.094;8.778;2023-07-31T12:30:38;20.90;90.30
24678;DHT22;12800;53.094;8.778;2023-07-31T12:33:06;20.90;90.40
24678;DHT22;12800;53.094;8.778;2023-07-31T12:35:36;20.90;90.50
24678;DHT22;12800;53.094;8.778;2023-07-31T12:38:03;20.90;90.50
24678;DHT22;12800;53.094;8.778;2023-07-31T12:40:28;20.90;90.40
24678;DHT22;12800;53.094;8.778;2023-07-31T12:42:54;20.90;90.50
24678;DHT22;12800;53.094;8.778;2023-07-31T12:45:20;20.90;90.40
24678;DHT22;12800;53.094;8.778;2023-07-31T12:47:47;20.80;90.30
24678;DHT22;12800;53.094;8.778;2023-07-31T12:50:12;20.80;90.40
24678;DHT22;12800;53.094;8.778;2023-07-31T12:52:38;20.70;90.50
24678;DHT22;12800;53.094;8.778;2023-07-31T12:55:04;20.70;90.50
24678;DHT22;12800;53.094;8.778;2023-07-31T12:57:30;20.70;90.60
24678;DHT22;12800;53.094;8.778;2023-07-31T12:59:56;20.70;90.60
24678;DHT22;12800;53.094;8.778;2023-07-31T13:02:21;20.70;90.60
24678;DHT22;12800;53.094;8.778;2023-07-31T13:04:49;20.70;90.60
24678;DHT22;12800;53.094;8.778;2023-07-31T13:07:15;20.70;90.60
24678;DHT22;12800;53.094;8.778;2023-07-31T13:09:41;20.70;90.60
24678;DHT22;12800;53.094;8.778;2023-07-31T13:12:07;20.70;90.50
24678;DHT22;12800;53.094;8.778;2023-07-31T13:14:32;20.70;90.50
24678;DHT22;12800;53.094;8.778;2023-07-31T13:16:58;20.70;90.50
24678;DHT22;12800;53.094;8.778;2023-07-31T13:19:24;20.70;90.40
24678;DHT22;12800;53.094;8.778;2023-07-31T13:21:49;20.70;90.40
24678;DHT22;12800;53.094;8.778;2023-07-31T13:24:15;20.70;90.40
24678;DHT22;12800;53.094;8.778;2023-07-31T13:26:41;20.70;90.40
24678;DHT22;12800;53.094;8.778;2023-07-31T13:29:06;20.70;90.40
24678;DHT22;12800;53.094;8.778;2023-07-31T13:31:32;20.80;90.40
24678;DHT22;12800;53.094;8.778;2023-07-31T13:33:57;20.90;90.40
24678;DHT22;12800;53.094;8.778;2023-07-31T13:36:23;20.90;90.30
24678;DHT22;12800;53.094;8.778;2023-07-31T13:38:49;20.90;90.30
24678;DHT22;12800;53.094;8.778;2023-07-31T13:41:14;20.90;90.20
24678;DHT22;12800;53.094;8.778;2023-07-31T13:43:40;20.90;90.30
24678;DHT22;12800;53.094;8.778;2023-07-31T13:46:06;20.90;90.20
24678;DHT22;12800;53.094;8.778;2023-07-31T13:48:36;20.90;90.20
24678;DHT22;12800;53.094;8.778;2023-07-31T13:51:02;20.80;90.20
24678;DHT22;12800;53.094;8.778;2023-07-31T13:53:27;20.80;90.20
24678;DHT22;12800;53.094;8.778;2023-07-31T13:55:53;20.80;90.30
24678;DHT22;12800;53.094;8.778;2023-07-31T13:58:19;20.70;90.30
24678;DHT22;12800;53.094;8.778;2023-07-31T14:00:45;20.70;90.40
24678;DHT22;12800;53.094;8.778;2023-07-31T14:03:11;20.70;90.40
24678;DHT22;12800;53.094;8.778;2023-07-31T14:05:37;20.60;90.40
24678;DHT22;12800;53.094;8.778;2023-07-31T14:08:02;20.60;90.40
24678;DHT22;12800;53.094;8.778;2023-07-31T14:10:28;20.60;90.50
24678;DHT22;12800;53.094;8.778;2023-07-31T14:12:53;20.60;90.60
24678;DHT22;12800;53.094;8.778;2023-07-31T14:15:19;20.60;90.70
24678;DHT22;12800;53.094;8.778;2023-07-31T14:17:45;20.60;90.60
24678;DHT22;12800;53.094;8.778;2023-07-31T14:20:11;20.60;90.60
24678;DHT22;12800;53.094;8.778;2023-07-31T14:22:37;20.60;90.60
24678;DHT22;12800;53.094;8.778;2023-07-31T14:25:03;20.60;90.60
24678;DHT22;12800;53.094;8.778;2023-07-31T14:27:29;20.60;90.70
24678;DHT22;12800;53.094;8.778;2023-07-31T14:29:54;20.60;90.60
24678;DHT22;12800;53.094;8.778;2023-07-31T14:32:21;20.60;90.60
24678;DHT22;12800;53.094;8.778;2023-07-31T14:34:49;20.60;90.60
24678;DHT22;12800;53.094;8.778;2023-07-31T14:37:14;20.60;90.60
24678;DHT22;12800;53.094;8.778;2023-07-31T14:39:40;20.60;90.60
24678;DHT22;12800;53.094;8.778;2023-07-31T14:42:05;20.60;90.60
24678;DHT22;12800;53.094;8.778;2023-07-31T14:44:31;20.60;90.50
24678;DHT22;12800;53.094;8.778;2023-07-31T14:46:57;20.60;90.50
24678;DHT22;12800;53.094;8.778;2023-07-31T14:49:22;20.60;90.40
24678;DHT22;12800;53.094;8.778;2023-07-31T14:51:48;20.60;90.40
24678;DHT22;12800;53.094;8.778;2023-07-31T14:54:14;20.60;90.50
24678;DHT22;12800;53.094;8.778;2023-07-31T14:56:39;20.60;90.40
24678;DHT22;12800;53.094;8.778;2023-07-31T14:59:05;20.60;90.30
24678;DHT22;12800;53.094;8.778;2023-07-31T15:01:30;20.50;90.40
24678;DHT22;12800;53.094;8.778;2023-07-31T15:03:56;20.50;90.50
24678;DHT22;12800;53.094;8.778;2023-07-31T15:06:22;20.50;90.60
24678;DHT22;12800;53.094;8.778;2023-07-31T15:08:47;20.50;90.60
24678;DHT22;12800;53.094;8.778;2023-07-31T15:11:13;20.40;90.50
24678;DHT22;12800;53.094;8.778;2023-07-31T15:13:41;20.30;90.50
24678;DHT22;12800;53.094;8.778;2023-07-31T15:16:06;20.30;90.70
24678;DHT22;12800;53.094;8.778;2023-07-31T15:18:32;20.30;91.20
24678;DHT22;12800;53.094;8.778;2023-07-31T15:20:57;20.30;91.00
24678;DHT22;12800;53.094;8.778;2023-07-31T15:23:23;20.30;91.00
24678;DHT22;12800;53.094;8.778;2023-07-31T15:25:49;20.30;91.10
24678;DHT22;12800;53.094;8.778;2023-07-31T15:28:14;20.30;91.10
24678;DHT22;12800;53.094;8.778;2023-07-31T15:30:41;20.30;91.10
24678;DHT22;12800;53.094;8.778;2023-07-31T15:33:06;20.20;91.20
24678;DHT22;12800;53.094;8.778;2023-07-31T15:35:32;20.20;91.20
24678;DHT22;12800;53.094;8.778;2023-07-31T15:37:57;20.10;91.40
24678;DHT22;12800;53.094;8.778;2023-07-31T15:40:23;20.10;91.50
24678;DHT22;12800;53.094;8.778;2023-07-31T15:42:49;20.10;91.60